Time;durP1;ratioP1;P1;durP2;ratioP2;P2;SDS_P1;SDS_P2;PMS_P1;PMS_P2;Temp;Humidity;BMP_temperature;BMP_pressure;BME280_temperature;BME280_humidity;BME280_pressure;Samples;Min_cycle;Max_cycle;Signal;HPM_P1;HPM_P2
2022/07/15 00:01:28;;;;;;;9.15;3.45;;;;;;;15.30;77.62;102142.03;5111750;28;20502;-59
2022/07/15 00:03:53;;;;;;;11.10;3.03;;;;;;;15.20;77.99;102129.00;5111827;28;20370;-59
2022/07/15 00:06:19;;;;;;;7.78;3.10;;;;;;;15.26;78.00;102135.06;5111585;28;20040;-59
2022/07/15 00:08:44;;;;;;;8.93;3.10;;;;;;;15.24;77.90;102134.19;5111747;28;20036;-59
2022/07/15 00:11:09;;;;;;;9.75;3.00;;;;;;;15.27;78.01;102141.19;5111686;28;20063;-59
2022/07/15 00:13:34;;;;;;;11.82;3.28;;;;;;;15.14;78.12;102143.13;5111858;28;20046;-59
2022/07/15 00:16:00;;;;;;;9.00;3.13;;;;;;;15.15;78.28;102136.97;5111678;28;20470;-58
2022/07/15 00:18:25;;;;;;;7.70;3.03;;;;;;;15.07;78.55;102137.91;5111440;28;20024;-59
2022/07/15 00:20:50;;;;;;;11.05;3.55;;;;;;;15.05;78.64;102140.59;5111471;28;20093;-58
2022/07/15 00:23:15;;;;;;;9.55;3.00;;;;;;;15.04;78.70;102146.75;5111520;28;20031;-59
2022/07/15 00:25:41;;;;;;;12.15;3.60;;;;;;;14.95;78.46;102136.31;5111563;28;20035;-59
2022/07/15 00:28:07;;;;;;;12.82;3.30;;;;;;;14.86;79.21;102134.66;5111726;28;20032;-59
2022/07/15 00:30:36;;;;;;;9.00;3.38;;;;;;;14.81;79.43;102141.72;5111510;28;20055;-58
2022/07/15 00:33:02;;;;;;;10.25;3.20;;;;;;;14.84;79.21;102135.56;5111454;28;20089;-59
2022/07/15 00:35:29;;;;;;;9.15;3.40;;;;;;;14.77;79.60;102145.28;5111356;28;20039;-58
2022/07/15 00:37:54;;;;;;;7.55;3.08;;;;;;;14.80;79.39;102134.69;5111503;28;20039;-58
2022/07/15 00:40:20;;;;;;;7.25;2.90;;;;;;;14.69;79.89;102126.03;5111688;28;20041;-58
2022/07/15 00:42:45;;;;;;;9.88;3.53;;;;;;;14.76;79.56;102137.38;5111578;28;20353;-58
2022/07/15 00:45:18;;;;;;;8.13;3.65;;;;;;;14.78;79.62;102128.56;5111366;28;20032;-59
2022/07/15 00:47:46;;;;;;;7.65;3.10;;;;;;;14.72;79.64;102135.69;5111115;28;20055;-58
2022/07/15 00:50:13;;;;;;;5.68;3.03;;;;;;;14.72;79.70;102136.53;5112488;28;20452;-59
2022/07/15 00:52:40;;;;;;;9.65;3.00;;;;;;;14.54;79.67;102142.88;5115344;28;20042;-59
2022/07/15 00:55:08;;;;;;;8.07;2.78;;;;;;;14.61;79.77;102138.41;5115269;28;20035;-58
2022/07/15 00:57:36;;;;;;;9.88;3.10;;;;;;;14.52;80.66;102143.78;5115178;28;20118;-59
2022/07/15 01:00:04;;;;;;;7.45;3.28;;;;;;;14.50;80.72;102140.28;5114560;28;20491;-58
2022/07/15 01:02:31;;;;;;;9.98;3.42;;;;;;;14.52;80.47;102141.13;5114920;28;20347;-58
2022/07/15 01:04:58;;;;;;;8.40;3.05;;;;;;;14.45;80.76;102144.69;5114568;28;20028;-58
2022/07/15 01:07:24;;;;;;;9.98;3.28;;;;;;;14.40;81.09;102141.19;5115074;28;20071;-58
2022/07/15 01:09:49;;;;;;;9.15;3.13;;;;;;;14.38;81.24;102140.31;5115013;28;20031;-59
2022/07/15 01:12:14;;;;;;;10.25;3.97;;;;;;;14.25;81.76;102135.16;5114230;28;20365;-59
2022/07/15 01:14:39;;;;;;;11.30;3.00;;;;;;;14.24;82.00;102132.53;5114710;28;20031;-57
2022/07/15 01:17:11;;;;;;;9.73;2.88;;;;;;;14.26;81.63;102134.28;5114485;28;20034;-58
2022/07/15 01:19:37;;;;;;;8.48;3.25;;;;;;;14.22;82.00;102131.69;5114614;28;20023;-58
2022/07/15 01:22:06;;;;;;;10.38;3.33;;;;;;;14.25;81.93;102135.16;5114653;28;20046;-58
2022/07/15 01:24:31;;;;;;;9.38;2.90;;;;;;;14.11;82.23;102139.66;5114476;28;20040;-58
2022/07/15 01:26:56;;;;;;;8.50;3.05;;;;;;;14.09;82.55;102130.91;5114593;28;20122;-58
2022/07/15 01:29:22;;;;;;;6.45;2.88;;;;;;;14.06;82.63;102145.84;5114271;28;20039;-57
2022/07/15 01:31:47;;;;;;;9.13;3.03;;;;;;;14.05;82.67;102147.59;5114458;28;20048;-58
2022/07/15 01:34:12;;;;;;;9.55;3.10;;;;;;;14.04;82.63;102151.13;5114389;28;20023;-58
2022/07/15 01:36:37;;;;;;;8.30;2.80;;;;;;;13.99;82.85;102152.03;5114273;28;20380;-58
2022/07/15 01:39:03;;;;;;;7.28;3.10;;;;;;;14.05;82.61;102158.13;5114408;28;20716;-59
2022/07/15 01:41:28;;;;;;;7.78;2.70;;;;;;;14.09;82.57;102148.47;5114137;28;20046;-58
2022/07/15 01:43:53;;;;;;;9.18;3.17;;;;;;;14.03;82.81;102149.38;5114172;28;20034;-59
2022/07/15 01:46:19;;;;;;;7.10;2.78;;;;;;;14.06;82.66;102156.38;5113998;28;20434;-59
2022/07/15 01:51:29;;;;;;;8.45;3.20;;;;;;;13.99;82.95;102150.28;5114354;28;20222;-59
2022/07/15 01:53:56;;;;;;;11.10;2.85;;;;;;;14.00;83.56;102161.69;5113909;28;20063;-58
2022/07/15 01:56:21;;;;;;;9.43;3.03;;;;;;;13.92;83.63;102157.34;5113384;28;20474;-59
2022/07/15 01:58:46;;;;;;;7.35;3.05;;;;;;;13.98;83.39;102155.56;5113836;28;20040;-58
2022/07/15 02:01:12;;;;;;;13.95;3.15;;;;;;;13.91;83.56;102162.59;5112990;28;20159;-58
2022/07/15 02:03:37;;;;;;;11.23;3.13;;;;;;;13.82;84.24;102162.69;5113152;28;20042;-59
2022/07/15 02:06:02;;;;;;;8.10;3.30;;;;;;;13.85;83.36;102160.03;5113751;28;20127;-58
2022/07/15 02:08:28;;;;;;;13.25;3.63;;;;;;;13.84;83.86;102160.91;5113951;28;20035;-58
2022/07/15 02:10:53;;;;;;;10.52;3.00;;;;;;;13.85;83.72;102165.31;5113546;28;20036;-59
2022/07/15 02:13:19;;;;;;;10.07;3.20;;;;;;;13.81;84.29;102158.28;5113399;28;20493;-58
2022/07/15 02:15:44;;;;;;;9.05;2.75;;;;;;;13.81;84.30;102158.28;5113412;28;20062;-59
2022/07/15 02:18:10;;;;;;;7.30;3.05;;;;;;;13.82;84.06;102154.78;5113637;28;20067;-59
2022/07/15 02:20:36;;;;;;;8.63;3.08;;;;;;;13.78;84.25;102153.03;5113722;28;20186;-58
2022/07/15 02:23:01;;;;;;;8.88;3.13;;;;;;;13.82;84.26;102155.66;5113568;28;20145;-58
2022/07/15 02:25:33;;;;;;;8.98;3.40;;;;;;;13.71;84.82;102151.31;5113404;28;20518;-59
2022/07/15 02:28:01;;;;;;;7.73;2.80;;;;;;;13.69;85.10;102153.09;5113238;28;20110;-58
2022/07/15 02:30:29;;;;;;;11.52;3.13;;;;;;;13.64;85.27;102150.50;5113001;28;20051;-58
2022/07/15 02:32:55;;;;;;;13.32;3.53;;;;;;;13.62;85.53;102157.53;5113169;28;20188;-57
2022/07/15 02:35:21;;;;;;;10.68;3.05;;;;;;;13.56;85.00;102153.16;5113135;28;20039;-58
2022/07/15 02:37:46;;;;;;;11.50;3.17;;;;;;;13.57;85.29;102149.63;5112991;28;20028;-59
2022/07/15 02:40:12;;;;;;;8.73;2.60;;;;;;;13.59;85.15;102152.28;5112653;28;20149;-58
2022/07/15 02:42:37;;;;;;;6.38;2.80;;;;;;;13.47;85.88;102147.94;5113259;28;20224;-58
2022/07/15 02:45:04;;;;;;;7.55;3.53;;;;;;;13.49;85.92;102147.94;5112882;28;20043;-58
2022/07/15 02:47:29;;;;;;;7.93;2.90;;;;;;;13.42;86.48;102147.09;5112869;28;20117;-58
2022/07/15 02:49:55;;;;;;;10.38;3.10;;;;;;;13.36;86.55;102149.72;5112929;28;20123;-58
2022/07/15 02:52:20;;;;;;;6.57;2.92;;;;;;;13.50;85.97;102160.22;5112660;28;20032;-59
2022/07/15 02:54:45;;;;;;;9.25;3.03;;;;;;;13.36;86.49;102156.75;5112788;28;20027;-58
2022/07/15 02:57:10;;;;;;;7.90;3.42;;;;;;;13.36;86.63;102155.00;5112611;28;20354;-58
2022/07/15 02:59:36;;;;;;;9.52;3.20;;;;;;;13.43;86.25;102158.47;5112445;28;20036;-58
2022/07/15 03:02:01;;;;;;;10.70;3.40;;;;;;;13.34;86.17;102162.00;5112574;28;20089;-58
2022/07/15 03:04:26;;;;;;;9.50;3.05;;;;;;;13.36;86.22;102167.25;5112514;28;20043;-58
2022/07/15 03:06:52;;;;;;;10.60;3.05;;;;;;;13.30;86.62;102177.81;5112485;28;20054;-60
2022/07/15 03:09:17;;;;;;;8.93;3.08;;;;;;;13.28;86.52;102183.06;5112442;28;20035;-58
2022/07/15 03:11:42;;;;;;;8.20;3.45;;;;;;;13.27;86.47;102190.97;5112215;28;20318;-58
2022/07/15 03:14:09;;;;;;;8.98;3.22;;;;;;;13.29;86.50;102186.59;5112112;28;20138;-58
2022/07/15 03:16:34;;;;;;;8.07;3.22;;;;;;;13.24;86.68;102181.34;5112492;28;20035;-58
2022/07/15 03:18:59;;;;;;;8.30;3.40;;;;;;;13.25;86.84;102188.34;5112244;28;20431;-58
2022/07/15 03:21:25;;;;;;;9.27;3.08;;;;;;;13.19;87.09;102185.72;5112441;28;20035;-58
2022/07/15 03:23:50;;;;;;;8.20;3.42;;;;;;;13.14;87.23;102182.22;5112268;28;20036;-58
2022/07/15 03:26:16;;;;;;;8.80;3.40;;;;;;;13.16;87.58;102193.63;5112322;28;20334;-59
2022/07/15 03:28:41;;;;;;;5.72;3.28;;;;;;;13.03;87.64;102190.09;5112437;28;20051;-59
2022/07/15 03:31:06;;;;;;;9.90;3.42;;;;;;;13.08;87.92;102192.72;5112033;28;20093;-58
2022/07/15 03:33:32;;;;;;;10.15;3.60;;;;;;;13.12;87.93;102202.38;5112157;28;20031;-59
2022/07/15 03:35:57;;;;;;;9.43;3.50;;;;;;;13.13;87.98;102197.13;5112229;28;20126;-59
2022/07/15 03:38:22;;;;;;;9.45;3.50;;;;;;;13.15;87.77;102203.28;5112096;28;20028;-59
2022/07/15 03:40:48;;;;;;;9.77;3.92;;;;;;;13.19;87.63;102202.38;5111997;28;20059;-59
2022/07/15 03:43:13;;;;;;;11.77;3.80;;;;;;;13.16;87.82;102206.78;5112099;28;20038;-59
2022/07/15 03:45:39;;;;;;;7.57;3.63;;;;;;;13.18;88.16;102203.25;5111934;28;20038;-58
2022/07/15 03:48:05;;;;;;;11.70;3.67;;;;;;;13.19;88.22;102209.38;5111987;28;20035;-59
2022/07/15 03:50:30;;;;;;;10.13;3.50;;;;;;;13.15;88.25;102202.41;5112146;28;20063;-58
2022/07/15 03:52:55;;;;;;;8.40;3.67;;;;;;;13.16;88.23;102212.88;5111783;28;20335;-58
2022/07/15 03:55:21;;;;;;;7.80;3.53;;;;;;;13.19;88.15;102204.13;5111731;28;20037;-59
2022/07/15 03:57:46;;;;;;;9.07;3.75;;;;;;;13.25;88.11;102214.63;5111615;28;20100;-59
2022/07/15 04:00:12;;;;;;;10.18;4.07;;;;;;;13.27;88.22;102219.88;5111717;28;20028;-58
2022/07/15 04:02:38;;;;;;;8.55;4.30;;;;;;;13.32;88.13;102216.38;5111750;28;20359;-59
2022/07/15 04:05:04;;;;;;;7.72;3.72;;;;;;;13.35;88.58;102220.72;5111856;28;20047;-59
2022/07/15 04:07:29;;;;;;;11.05;3.53;;;;;;;13.38;88.19;102226.84;5111660;28;20031;-57
2022/07/15 04:09:55;;;;;;;10.35;4.20;;;;;;;13.40;88.35;102219.84;5111776;28;20043;-58
2022/07/15 04:12:20;;;;;;;7.07;3.65;;;;;;;13.46;87.88;102222.47;5111657;28;20394;-58
2022/07/15 04:14:45;;;;;;;12.80;3.95;;;;;;;13.47;88.08;102221.59;5111526;28;20028;-58
2022/07/15 04:17:11;;;;;;;8.00;3.78;;;;;;;13.47;88.10;102226.84;5111840;28;20040;-60
2022/07/15 04:19:36;;;;;;;8.20;4.20;;;;;;;13.49;88.82;102218.94;5111694;28;20351;-58
2022/07/15 04:22:02;;;;;;;11.95;4.15;;;;;;;13.62;88.22;102220.66;5111681;28;20043;-59
2022/07/15 04:24:27;;;;;;;11.02;4.05;;;;;;;13.71;87.88;102215.34;5111520;28;20122;-59
2022/07/15 04:26:52;;;;;;;11.40;5.05;;;;;;;13.83;87.20;102222.31;5115545;28;20670;-59
2022/07/15 04:29:17;;;;;;;13.90;4.38;;;;;;;13.86;87.20;102227.53;5115770;28;20721;-59
2022/07/15 04:31:43;;;;;;;8.98;3.72;;;;;;;13.99;86.95;102229.25;5115776;28;20051;-58
2022/07/15 04:34:08;;;;;;;13.73;3.75;;;;;;;14.04;86.38;102224.81;5115744;28;20061;-58
2022/07/15 04:36:33;;;;;;;12.32;3.75;;;;;;;14.10;86.32;102224.78;5115827;28;20039;-59
2022/07/15 04:38:58;;;;;;;7.45;3.70;;;;;;;14.23;85.54;102221.19;5115414;28;20437;-58
2022/07/15 04:41:24;;;;;;;11.10;4.05;;;;;;;14.32;85.31;102228.16;5115520;28;20046;-59
2022/07/15 04:43:49;;;;;;;10.10;3.78;;;;;;;14.30;84.83;102229.94;5115310;28;20084;-58
2022/07/15 04:46:14;;;;;;;7.53;4.05;;;;;;;14.40;84.52;102233.38;5115358;28;20443;-58
2022/07/15 04:51:23;;;;;;;11.00;4.05;;;;;;;14.48;83.78;102234.22;5115111;28;20062;-60
2022/07/15 04:53:49;;;;;;;10.77;3.80;;;;;;;14.42;84.44;102236.91;5115345;28;20040;-58
2022/07/15 04:56:15;;;;;;;11.77;3.75;;;;;;;14.48;83.78;102234.22;5115121;28;20812;-59
2022/07/15 04:58:40;;;;;;;9.48;3.88;;;;;;;14.46;84.19;102236.00;5114971;28;20089;-59
2022/07/15 05:01:06;;;;;;;8.80;3.78;;;;;;;14.40;84.03;102234.28;5114918;28;20043;-59
2022/07/15 05:03:31;;;;;;;10.95;3.50;;;;;;;14.36;84.21;102239.56;5114871;28;20430;-59
2022/07/15 05:05:56;;;;;;;10.35;3.55;;;;;;;14.23;84.48;102221.19;5114778;28;20039;-60
2022/07/15 05:08:22;;;;;;;9.10;3.70;;;;;;;14.28;84.61;102234.34;5114588;28;20042;-58
2022/07/15 05:10:47;;;;;;;9.40;3.97;;;;;;;14.20;84.87;102239.63;5114608;28;20035;-58
2022/07/15 05:13:13;;;;;;;13.82;4.15;;;;;;;14.18;84.98;102238.78;5115015;28;20031;-59
2022/07/15 05:15:38;;;;;;;12.43;4.18;;;;;;;14.17;85.14;102234.41;5114758;28;20077;-59
2022/07/15 05:18:04;;;;;;;9.15;4.10;;;;;;;14.08;85.75;102241.47;5114772;28;20031;-59
2022/07/15 05:20:29;;;;;;;12.73;4.75;;;;;;;14.08;85.87;102241.47;5114627;28;20054;-59
2022/07/15 05:22:54;;;;;;;12.45;4.00;;;;;;;14.05;85.70;102236.22;5114538;28;20047;-59
2022/07/15 05:25:20;;;;;;;10.80;4.10;;;;;;;14.01;86.03;102235.38;5114276;28;20370;-58
2022/07/15 05:27:45;;;;;;;11.00;4.13;;;;;;;14.03;86.29;102241.50;5114630;28;20039;-59
2022/07/15 05:30:12;;;;;;;10.45;3.70;;;;;;;14.07;86.03;102243.22;5114348;28;20063;-57
2022/07/15 05:32:38;;;;;;;9.70;3.80;;;;;;;14.08;86.39;102239.72;5114415;28;20075;-59
2022/07/15 05:35:04;;;;;;;7.93;3.78;;;;;;;14.14;86.31;102241.44;5114146;28;20039;-60
2022/07/15 05:37:29;;;;;;;15.95;3.75;;;;;;;14.16;85.86;102235.28;5113036;28;20044;-60
2022/07/15 05:39:54;;;;;;;8.85;3.25;;;;;;;14.14;85.60;102242.31;5114059;28;20438;-58
2022/07/15 05:42:21;;;;;;;10.93;3.30;;;;;;;14.17;85.44;102241.44;5114410;28;20032;-58
2022/07/15 05:44:46;;;;;;;13.98;3.72;;;;;;;14.19;85.97;102237.03;5114013;28;20815;-59
2022/07/15 05:47:12;;;;;;;10.48;3.60;;;;;;;14.20;85.75;102239.63;5114255;28;20114;-59
2022/07/15 05:49:37;;;;;;;9.77;3.40;;;;;;;14.27;85.44;102238.72;5114316;28;20420;-59
2022/07/15 05:52:03;;;;;;;12.23;3.95;;;;;;;14.29;85.08;102236.97;5113926;28;20035;-60
2022/07/15 05:54:29;;;;;;;12.25;3.88;;;;;;;14.34;85.22;102238.69;5113816;28;20066;-58
2022/07/15 05:56:54;;;;;;;9.35;3.45;;;;;;;14.40;85.19;102231.63;5113918;28;20063;-58
2022/07/15 05:59:19;;;;;;;10.57;3.30;;;;;;;14.32;84.83;102215.00;5113885;28;20043;-58
2022/07/15 06:01:45;;;;;;;13.05;3.75;;;;;;;14.51;84.63;102229.81;5113811;28;20370;-57
2022/07/15 06:04:10;;;;;;;9.55;3.53;;;;;;;14.54;84.92;102232.44;5113597;28;20036;-57
2022/07/15 06:06:35;;;;;;;9.13;2.72;;;;;;;14.61;83.96;102231.50;5113657;28;20192;-58
2022/07/15 06:09:00;;;;;;;10.43;3.35;;;;;;;14.65;84.00;102234.97;5113443;28;20043;-58
2022/07/15 06:11:26;;;;;;;9.13;2.58;;;;;;;14.73;82.94;102232.25;5113294;28;20116;-57
2022/07/15 06:13:51;;;;;;;7.47;2.63;;;;;;;15.33;81.72;102230.81;5113825;28;20047;-58
2022/07/15 06:16:16;;;;;;;8.30;2.40;;;;;;;15.90;78.13;102229.28;5113347;28;20035;-58
2022/07/15 06:18:42;;;;;;;8.68;2.67;;;;;;;15.76;77.52;102220.66;5113615;28;20434;-58
2022/07/15 06:21:07;;;;;;;7.85;2.47;;;;;;;15.55;78.49;102226.19;5113212;28;20499;-58
2022/07/15 06:23:32;;;;;;;6.75;1.80;;;;;;;15.40;77.58;102234.28;5113334;28;20041;-58
2022/07/15 06:25:58;;;;;;;10.90;2.78;;;;;;;15.35;78.40;102229.03;5113284;28;20054;-57
2022/07/15 06:28:23;;;;;;;7.43;2.08;;;;;;;15.28;78.74;102224.72;5113232;28;20702;-58
2022/07/15 06:30:48;;;;;;;7.80;2.15;;;;;;;15.28;78.43;102227.34;5113047;28;20716;-58
2022/07/15 06:33:13;;;;;;;6.60;1.88;;;;;;;15.48;77.13;102225.38;5110441;28;20073;-58
2022/07/15 06:35:39;;;;;;;8.38;2.40;;;;;;;15.60;77.13;102225.25;5099537;28;20028;-63
2022/07/15 06:38:04;;;;;;;7.28;1.90;;;;;;;15.54;75.45;102225.31;5096538;28;20373;-60
2022/07/15 06:40:29;;;;;;;10.07;2.03;;;;;;;15.60;75.99;102222.59;5092502;28;20061;-60
2022/07/15 06:42:55;;;;;;;5.28;1.80;;;;;;;15.68;75.59;102224.28;5092402;28;20285;-58
2022/07/15 06:45:20;;;;;;;6.40;2.15;;;;;;;15.56;75.71;102210.38;5092818;28;20039;-58
2022/07/15 06:47:45;;;;;;;5.70;2.05;;;;;;;15.60;76.68;102233.16;5092323;28;20043;-59
2022/07/15 06:50:11;;;;;;;6.68;1.55;;;;;;;15.58;76.18;102234.09;5092459;28;20040;-59
2022/07/15 06:52:37;;;;;;;5.50;1.77;;;;;;;15.53;74.18;102223.56;5092313;28;20420;-59
2022/07/15 06:55:03;;;;;;;7.45;1.92;;;;;;;15.55;74.76;102231.47;5092467;28;20040;-60
2022/07/15 06:57:28;;;;;;;6.45;1.55;;;;;;;15.59;75.27;102227.91;5092483;28;20039;-60
2022/07/15 06:59:54;;;;;;;6.03;1.50;;;;;;;15.62;74.98;102228.75;5092701;28;20035;-61
2022/07/15 07:02:19;;;;;;;8.25;1.77;;;;;;;15.64;74.43;102221.69;5091907;28;20040;-60
2022/07/15 07:04:45;;;;;;;6.18;1.63;;;;;;;15.71;74.94;102224.25;5092401;28;20032;-60
2022/07/15 07:07:10;;;;;;;4.53;1.60;;;;;;;15.74;75.13;102226.88;5092008;28;20095;-59
2022/07/15 07:09:35;;;;;;;5.65;1.50;;;;;;;15.77;73.89;102237.34;5092001;28;20055;-59
2022/07/15 07:12:00;;;;;;;7.13;1.40;;;;;;;15.77;72.16;102227.66;5092257;28;20032;-60
2022/07/15 07:14:26;;;;;;;6.03;1.10;;;;;;;15.81;72.39;102234.66;5092124;28;20046;-59
2022/07/15 07:16:51;;;;;;;6.05;0.95;;;;;;;15.87;68.32;102241.66;5092196;28;20036;-60
2022/07/15 07:19:17;;;;;;;4.80;1.20;;;;;;;15.89;68.82;102242.50;5091788;28;20343;-59
2022/07/15 07:21:42;;;;;;;4.38;1.23;;;;;;;15.93;68.75;102237.13;5091912;28;20116;-60
2022/07/15 07:24:07;;;;;;;4.25;0.77;;;;;;;16.02;67.98;102244.06;5091799;28;20071;-57
2022/07/15 07:26:33;;;;;;;3.10;0.88;;;;;;;16.06;67.71;102239.63;5091248;28;20066;-60
2022/07/15 07:28:59;;;;;;;4.28;1.08;;;;;;;16.09;68.15;102240.47;5091715;28;20121;-60
2022/07/15 07:31:27;;;;;;;5.07;0.85;;;;;;;16.18;67.51;102240.31;5091581;28;20475;-60
2022/07/15 07:33:57;;;;;;;3.75;0.90;;;;;;;16.23;67.22;102240.28;5092080;28;20684;-60
2022/07/15 07:36:23;;;;;;;7.45;1.10;;;;;;;16.51;66.51;102244.22;5091603;28;20108;-58
2022/07/15 07:38:48;;;;;;;6.72;0.90;;;;;;;16.64;65.61;102244.94;5091755;28;20135;-59
2022/07/15 07:41:14;;;;;;;4.47;0.80;;;;;;;16.65;65.60;102249.31;5091600;28;20115;-59
2022/07/15 07:43:39;;;;;;;5.60;0.93;;;;;;;16.65;65.29;102249.31;5091567;28;20032;-59
2022/07/15 07:46:05;;;;;;;3.03;0.93;;;;;;;16.60;64.88;102256.44;5091773;28;20036;-59
2022/07/15 07:48:30;;;;;;;7.63;1.00;;;;;;;16.58;65.98;102256.47;5091553;28;20063;-59
2022/07/15 07:50:56;;;;;;;6.80;1.10;;;;;;;16.72;65.51;102258.03;5091515;28;20089;-60
2022/07/15 07:53:22;;;;;;;5.45;0.98;;;;;;;16.76;64.10;102260.63;5091503;28;20089;-59
2022/07/15 07:55:48;;;;;;;3.38;0.80;;;;;;;16.72;63.79;102247.47;5091326;28;20435;-58
2022/07/15 07:58:15;;;;;;;3.97;0.95;;;;;;;16.78;64.66;102250.03;5091595;28;20032;-59
2022/07/15 08:00:41;;;;;;;2.90;0.80;;;;;;;16.70;63.67;102251.00;5090960;28;20035;-59
2022/07/15 08:03:06;;;;;;;4.25;1.25;;;;;;;16.74;64.43;102243.91;5091412;28;20042;-61
2022/07/15 08:05:32;;;;;;;4.88;1.10;;;;;;;16.77;64.88;102243.00;5091336;28;20047;-60
2022/07/15 08:08:10;;;;;;;6.35;1.15;;;;;;;16.81;65.41;102248.16;5091312;28;20047;-60
2022/07/15 08:10:36;;;;;;;3.78;1.00;;;;;;;16.89;63.89;102246.28;5091303;28;20164;-63
2022/07/15 08:13:01;;;;;;;2.83;0.80;;;;;;;16.97;62.49;102247.00;5091534;28;20152;-59
2022/07/15 08:15:28;;;;;;;3.92;1.00;;;;;;;17.05;61.17;102252.19;5091290;28;20354;-58
2022/07/15 08:17:53;;;;;;;3.47;0.80;;;;;;;17.05;61.43;102247.75;5091185;28;20051;-59
2022/07/15 08:20:18;;;;;;;5.03;1.00;;;;;;;16.97;62.13;102248.81;5091418;28;20384;-59
2022/07/15 08:22:44;;;;;;;7.43;1.10;;;;;;;16.85;62.87;102255.16;5091481;28;20262;-59
2022/07/15 08:25:09;;;;;;;5.82;0.88;;;;;;;16.83;63.79;102256.09;5091236;28;20093;-59
2022/07/15 08:27:34;;;;;;;4.78;1.10;;;;;;;16.86;64.04;102256.91;5091122;28;20524;-59
2022/07/15 08:30:00;;;;;;;4.93;1.10;;;;;;;16.86;63.71;102250.75;5091221;28;20443;-60
2022/07/15 08:32:25;;;;;;;6.03;1.42;;;;;;;16.94;62.75;102255.03;5090872;28;20044;-60
2022/07/15 08:34:50;;;;;;;6.45;1.17;;;;;;;17.07;62.83;102254.78;5091186;28;20060;-59
2022/07/15 08:37:16;;;;;;;2.45;0.80;;;;;;;17.14;61.86;102252.03;5091131;28;20097;-58
2022/07/15 08:39:41;;;;;;;4.95;1.00;;;;;;;17.22;61.20;102257.16;5091194;28;20128;-58
2022/07/15 08:42:06;;;;;;;4.85;1.27;;;;;;;17.24;59.63;102255.38;5091238;28;20043;-59
2022/07/15 08:44:32;;;;;;;3.88;0.90;;;;;;;17.21;60.45;102247.47;5090852;28;20028;-61
2022/07/15 08:47:05;;;;;;;4.68;0.90;;;;;;;17.19;60.43;102246.63;5091429;28;20043;-58
2022/07/15 08:49:32;;;;;;;5.70;1.20;;;;;;;17.17;59.73;102246.66;5091377;28;20040;-59
2022/07/15 08:51:59;;;;;;;3.25;0.90;;;;;;;17.23;60.39;102240.38;5090976;28;20433;-59
2022/07/15 08:54:28;;;;;;;4.10;1.00;;;;;;;17.42;57.70;102243.56;5090838;28;20032;-60
2022/07/15 08:56:54;;;;;;;4.80;1.17;;;;;;;17.49;57.44;102238.09;5091260;28;20063;-59
2022/07/15 08:59:20;;;;;;;4.25;0.80;;;;;;;17.60;55.24;102236.13;5090161;28;20120;-58
2022/07/15 09:01:48;;;;;;;5.07;0.90;;;;;;;17.81;56.09;102239.28;5095998;28;20540;-59
2022/07/15 09:04:14;;;;;;;4.55;0.90;;;;;;;18.12;54.51;102245.66;5090576;28;20035;-61
2022/07/15 09:06:48;;;;;;;3.58;0.93;;;;;;;18.30;54.70;102244.34;5090868;28;20039;-59
2022/07/15 09:09:27;;;;;;;2.80;0.80;;;;;;;18.51;55.71;102235.91;5088110;28;20047;-61
2022/07/15 09:12:07;;;;;;;3.47;0.80;;;;;;;19.00;52.67;102229.41;5100922;28;20027;-60
2022/07/15 09:14:37;;;;;;;3.08;0.70;;;;;;;20.33;48.29;102221.97;5094639;28;20515;-60
2022/07/15 09:17:11;;;;;;;2.47;0.75;;;;;;;21.52;48.10;102224.09;5114585;28;20747;-60
2022/07/15 09:20:04;;;;;;;5.78;1.10;;;;;;;22.73;44.74;102213.97;5114908;28;20042;-60
2022/07/15 09:22:33;;;;;;;3.85;0.88;;;;;;;23.84;39.78;102209.94;5093944;28;20032;-61
2022/07/15 09:25:07;;;;;;;2.75;0.80;;;;;;;24.79;39.65;102218.66;5094168;28;20557;-60
2022/07/15 09:27:37;;;;;;;2.63;0.90;;;;;;;25.20;37.21;102213.88;5094348;28;20028;-61
2022/07/15 09:36:05;;;;;;;3.67;0.73;;;;;;;25.92;34.90;102219.75;5093645;28;20675;-61
2022/07/15 09:38:43;;;;;;;2.90;0.82;;;;;;;25.28;36.27;102214.34;5094254;28;20032;-61
2022/07/15 09:41:13;;;;;;;5.22;0.80;;;;;;;24.25;36.97;102220.47;5093931;28;20036;-61
2022/07/15 09:43:47;;;;;;;6.05;0.68;;;;;;;23.33;38.94;102218.50;5093933;28;20100;-61
2022/07/15 09:46:12;;;;;;;4.20;0.80;;;;;;;22.56;40.66;102225.38;5093808;28;20397;-61
2022/07/15 09:48:42;;;;;;;4.43;0.73;;;;;;;22.05;41.63;102226.53;5093845;28;20087;-60
2022/07/15 09:51:09;;;;;;;4.93;0.93;;;;;;;21.83;41.93;102228.25;5094004;28;20036;-59
2022/07/15 09:53:35;;;;;;;1.52;0.60;;;;;;;21.53;43.04;102217.84;5093781;28;20028;-59
2022/07/15 09:56:01;;;;;;;2.92;0.90;;;;;;;21.65;43.60;102220.97;5093362;28;20466;-60
2022/07/15 09:58:28;;;;;;;2.05;0.60;;;;;;;21.58;43.08;102223.00;5093768;28;20039;-61
2022/07/15 10:00:53;;;;;;;4.15;0.63;;;;;;;21.45;43.21;102214.59;5093803;28;20108;-60
2022/07/15 10:03:22;;;;;;;2.95;0.80;;;;;;;21.42;44.06;102217.38;5093638;28;20067;-61
2022/07/15 10:05:53;;;;;;;3.72;0.90;;;;;;;21.52;43.65;102210.78;5093616;28;20028;-60
2022/07/15 10:08:19;;;;;;;3.63;0.90;;;;;;;21.60;44.28;102201.63;5093458;28;20043;-60
2022/07/15 10:10:45;;;;;;;3.83;0.75;;;;;;;21.78;44.05;102207.13;5093499;28;20032;-60
2022/07/15 10:13:35;;;;;;;2.45;1.30;;;;;;;21.94;45.00;102212.75;5093520;28;20036;-59
2022/07/15 10:16:06;;;;;;;2.75;1.08;;;;;;;22.16;44.26;102207.47;5093306;28;20039;-61
2022/07/15 10:19:05;;;;;;;5.27;2.00;;;;;;;22.27;43.49;102204.34;5093517;28;20354;-60
2022/07/15 10:21:39;;;;;;;5.05;1.75;;;;;;;22.21;43.11;102198.34;5093215;28;20082;-60
2022/07/15 10:24:35;;;;;;;3.47;0.73;;;;;;;22.19;43.73;102202.00;5092715;28;20032;-60
2022/07/15 10:27:18;;;;;;;2.63;1.15;;;;;;;22.41;43.81;102192.19;5092958;28;20035;-60
2022/07/15 10:29:44;;;;;;;2.55;0.70;;;;;;;22.34;41.61;102193.34;5092862;28;20040;-61
2022/07/15 10:32:09;;;;;;;2.05;0.80;;;;;;;22.41;41.65;102194.00;5093138;28;20653;-60
2022/07/15 10:34:38;;;;;;;3.65;1.05;;;;;;;22.58;42.64;102192.34;5093017;28;20097;-60
2022/07/15 10:37:06;;;;;;;3.08;1.40;;;;;;;22.74;40.61;102181.91;5093002;28;20064;-60
2022/07/15 10:40:06;;;;;;;2.15;0.60;;;;;;;22.67;42.61;102190.25;5092864;28;20427;-61
2022/07/15 10:43:03;;;;;;;2.85;1.80;;;;;;;22.47;42.82;102191.06;5092788;28;20039;-60
2022/07/15 10:45:28;;;;;;;3.08;0.90;;;;;;;22.49;41.61;102181.22;5084389;28;20518;-61
2022/07/15 10:48:30;;;;;;;6.00;1.10;;;;;;;22.93;43.04;102179.31;5092677;28;20050;-61
2022/07/15 10:50:55;;;;;;;3.45;0.73;;;;;;;23.08;38.79;102173.31;5092774;28;20084;-60
2022/07/15 10:53:25;;;;;;;3.13;1.38;;;;;;;23.23;39.49;102171.75;5092639;28;20032;-60
2022/07/15 10:55:51;;;;;;;1.95;1.00;;;;;;;23.01;38.04;102161.19;5092596;28;20028;-60
2022/07/15 10:58:17;;;;;;;3.38;0.80;;;;;;;23.01;38.36;102157.66;5092548;28;20039;-61
2022/07/15 11:00:44;;;;;;;2.63;1.15;;;;;;;23.12;38.58;102166.03;5092590;28;20390;-60
2022/07/15 11:03:17;;;;;;;3.92;1.20;;;;;;;23.32;39.33;102157.13;5092535;28;20031;-61
2022/07/15 11:05:52;;;;;;;2.03;0.70;;;;;;;23.30;38.62;102157.19;5092355;28;20032;-60
2022/07/15 11:08:40;;;;;;;3.63;0.85;;;;;;;23.39;39.50;102153.22;5092465;28;20032;-60
2022/07/15 11:11:14;;;;;;;4.90;1.00;;;;;;;23.37;39.29;102156.00;5091964;28;20340;-60
2022/07/15 11:13:48;;;;;;;2.08;1.00;;;;;;;23.48;40.21;102155.47;5092191;28;20031;-61
2022/07/15 11:16:15;;;;;;;3.47;0.80;;;;;;;23.01;40.16;102155.84;5092278;28;20081;-61
2022/07/15 11:18:53;;;;;;;3.35;1.23;;;;;;;22.77;41.68;102148.91;5092244;28;20067;-61
2022/07/15 11:21:20;;;;;;;3.83;1.60;;;;;;;22.79;40.30;102141.69;5092083;28;20042;-60
2022/07/15 11:23:49;;;;;;;2.22;1.20;;;;;;;22.95;40.37;102158.78;5092009;28;20047;-60
2022/07/15 11:26:14;;;;;;;3.15;0.95;;;;;;;23.06;39.24;102153.81;5092122;28;20039;-60
2022/07/15 11:28:56;;;;;;;5.63;2.58;;;;;;;23.32;40.43;102158.00;5092126;28;20621;-60
2022/07/15 11:31:25;;;;;;;2.05;0.80;;;;;;;23.59;38.58;102140.69;5091897;28;20062;-58
2022/07/15 11:33:55;;;;;;;2.53;1.00;;;;;;;23.85;39.07;102149.31;5092443;28;20050;-59
2022/07/15 11:36:22;;;;;;;2.47;0.80;;;;;;;23.91;37.67;102140.97;5109456;28;20039;-60